Time;durP1;ratioP1;P1;durP2;ratioP2;P2;SDS_P1;SDS_P2;PMS_P1;PMS_P2;Temp;Humidity;BMP_temperature;BMP_pressure;BME280_temperature;BME280_humidity;BME280_pressure;Samples;Min_cycle;Max_cycle;Signal;HPM_P1;HPM_P2
2021/05/11 00:01:51;;;;;;;9.37;2.00;;;;;;;;;;5053397;28;20785;-77
2021/05/11 00:04:17;;;;;;;9.80;1.60;;;;;;;;;;5053434;28;20291;-77
2021/05/11 00:06:44;;;;;;;10.43;1.90;;;;;;;;;;5054392;28;20318;-77
2021/05/11 00:09:12;;;;;;;10.03;2.10;;;;;;;;;;5056596;28;20298;-77
2021/05/11 00:11:39;;;;;;;7.07;1.57;;;;;;;;;;5093153;28;20248;-77
2021/05/11 00:14:06;;;;;;;8.90;1.83;;;;;;;;;;5093985;28;20228;-78
2021/05/11 00:16:33;;;;;;;9.67;2.07;;;;;;;;;;5093428;28;20209;-77
2021/05/11 00:19:02;;;;;;;7.00;1.80;;;;;;;;;;5093544;28;20205;-75
2021/05/11 00:21:29;;;;;;;7.67;2.10;;;;;;;;;;5070309;28;20271;-75
2021/05/11 00:23:55;;;;;;;8.40;2.30;;;;;;;;;;5073172;28;20364;-77
2021/05/11 00:26:23;;;;;;;11.30;2.10;;;;;;;;;;5076114;28;20307;-77
2021/05/11 00:28:50;;;;;;;6.80;1.83;;;;;;;;;;5072677;28;20621;-77
2021/05/11 00:31:16;;;;;;;7.03;1.73;;;;;;;;;;5073201;28;20313;-77
2021/05/11 00:33:43;;;;;;;11.27;2.10;;;;;;;;;;5068792;28;20202;-77
2021/05/11 00:36:10;;;;;;;4.73;2.00;;;;;;;;;;5060940;28;20289;-77
2021/05/11 00:38:36;;;;;;;12.67;2.77;;;;;;;;;;5072543;28;20209;-77
2021/05/11 00:41:03;;;;;;;9.07;2.17;;;;;;;;;;5065807;28;20286;-77
2021/05/11 00:43:31;;;;;;;10.33;2.10;;;;;;;;;;5062078;28;20643;-77
2021/05/11 00:45:59;;;;;;;8.63;2.13;;;;;;;;;;5052590;28;20257;-77
2021/05/11 00:48:26;;;;;;;8.87;2.47;;;;;;;;;;5086159;28;20205;-77
2021/05/11 00:50:52;;;;;;;6.87;1.93;;;;;;;;;;5066340;28;20789;-77
2021/05/11 00:53:19;;;;;;;6.67;2.07;;;;;;;;;;5078488;28;20280;-78
2021/05/11 00:55:46;;;;;;;10.40;1.93;;;;;;;;;;5077936;28;20241;-77
2021/05/11 00:58:14;;;;;;;6.93;1.63;;;;;;;;;;5053965;28;20569;-77
2021/05/11 01:00:41;;;;;;;9.53;2.17;;;;;;;;;;5068651;28;20346;-77
2021/05/11 01:03:08;;;;;;;6.33;1.70;;;;;;;;;;5052016;28;20692;-77
2021/05/11 01:05:35;;;;;;;7.57;2.03;;;;;;;;;;5061602;28;20237;-77
2021/05/11 01:08:01;;;;;;;8.30;2.17;;;;;;;;;;5081383;28;20296;-77
2021/05/11 01:10:28;;;;;;;12.43;2.17;;;;;;;;;;5070426;28;20245;-77
2021/05/11 01:12:55;;;;;;;7.37;1.83;;;;;;;;;;5076753;28;20295;-77
2021/05/11 01:15:22;;;;;;;5.87;1.90;;;;;;;;;;5078842;28;20236;-77
2021/05/11 01:17:53;;;;;;;7.10;1.77;;;;;;;;;;5069850;28;20558;-77
2021/05/11 01:20:29;;;;;;;10.27;1.77;;;;;;;;;;5071542;28;20197;-77
2021/05/11 01:25:49;;;;;;;9.77;2.17;;;;;;;;;;5058903;28;20736;-77
2021/05/11 01:28:21;;;;;;;6.37;1.90;;;;;;;;;;5074340;28;20691;-77
2021/05/11 01:31:25;;;;;;;6.33;1.90;;;;;;;;;;5069351;28;20230;-77
2021/05/11 01:48:06;;;;;;;10.10;2.03;;;;;;;;;;5013797;28;20211;-77
2021/05/11 01:50:36;;;;;;;12.03;2.50;;;;;;;;;;5009888;28;20233;-77
2021/05/11 01:53:13;;;;;;;12.23;2.53;;;;;;;;;;5028397;28;20206;-77
2021/05/11 01:58:53;;;;;;;8.13;2.53;;;;;;;;;;5023859;28;20202;-77
2021/05/11 02:18:18;;;;;;;7.57;2.27;;;;;;;;;;5018345;28;20199;-77
2021/05/11 02:23:30;;;;;;;7.30;2.03;;;;;;;;;;5060823;28;20258;-76
2021/05/11 02:25:57;;;;;;;7.43;2.40;;;;;;;;;;5055691;28;20309;-76
2021/05/11 02:28:24;;;;;;;6.80;2.10;;;;;;;;;;5070062;28;20304;-77
2021/05/11 02:30:51;;;;;;;7.87;2.30;;;;;;;;;;5069194;28;20305;-74
2021/05/11 02:33:18;;;;;;;6.80;1.93;;;;;;;;;;5069400;28;20292;-76
2021/05/11 02:35:45;;;;;;;5.70;1.97;;;;;;;;;;5071021;28;20300;-76
2021/05/11 02:38:12;;;;;;;11.33;2.23;;;;;;;;;;5069780;28;20297;-76
2021/05/11 02:40:40;;;;;;;8.20;2.17;;;;;;;;;;5070854;28;20250;-76
2021/05/11 02:43:10;;;;;;;9.77;2.57;;;;;;;;;;5065612;28;20197;-76
2021/05/11 02:45:38;;;;;;;7.20;2.00;;;;;;;;;;5072666;28;20212;-76
2021/05/11 02:48:06;;;;;;;7.83;2.27;;;;;;;;;;5062655;28;20225;-76
2021/05/11 02:50:34;;;;;;;10.20;3.03;;;;;;;;;;5054425;28;20267;-76
2021/05/11 02:53:01;;;;;;;8.60;2.50;;;;;;;;;;5086475;28;20288;-77
2021/05/11 02:55:28;;;;;;;8.23;2.37;;;;;;;;;;5091947;28;20256;-77
2021/05/11 02:57:55;;;;;;;8.87;2.20;;;;;;;;;;5068071;28;20295;-77
2021/05/11 03:00:23;;;;;;;9.00;2.60;;;;;;;;;;5073777;28;20309;-77
2021/05/11 03:02:50;;;;;;;8.57;2.30;;;;;;;;;;5094743;28;20205;-76
2021/05/11 03:05:17;;;;;;;12.83;2.50;;;;;;;;;;5069747;28;20225;-76
2021/05/11 03:07:44;;;;;;;8.17;2.10;;;;;;;;;;5067060;28;20283;-76
2021/05/11 03:10:12;;;;;;;7.73;2.23;;;;;;;;;;5075592;28;20314;-77
2021/05/11 03:12:39;;;;;;;7.60;2.57;;;;;;;;;;5063956;28;20243;-77
2021/05/11 03:15:06;;;;;;;10.23;2.60;;;;;;;;;;5063584;28;20201;-76
2021/05/11 03:17:33;;;;;;;7.13;2.20;;;;;;;;;;5057862;28;20608;-76
2021/05/11 03:20:01;;;;;;;7.80;2.23;;;;;;;;;;5062014;28;20295;-76
2021/05/11 03:22:28;;;;;;;8.60;2.80;;;;;;;;;;5069229;28;20717;-77
2021/05/11 03:24:54;;;;;;;9.53;2.30;;;;;;;;;;5073993;28;20406;-76
2021/05/11 03:27:21;;;;;;;9.93;3.03;;;;;;;;;;5073826;28;20333;-74
2021/05/11 03:29:48;;;;;;;8.90;2.43;;;;;;;;;;5073664;28;20316;-77
2021/05/11 03:32:15;;;;;;;9.40;2.30;;;;;;;;;;5071983;28;20286;-76
2021/05/11 03:34:42;;;;;;;5.10;2.47;;;;;;;;;;5068854;28;20354;-76
2021/05/11 03:37:10;;;;;;;8.10;2.47;;;;;;;;;;5065728;28;20209;-76
2021/05/11 03:39:38;;;;;;;7.33;2.47;;;;;;;;;;5053888;28;20205;-76
2021/05/11 03:42:10;;;;;;;7.93;2.50;;;;;;;;;;5057857;28;20262;-76
2021/05/11 03:44:38;;;;;;;7.80;2.07;;;;;;;;;;5073392;28;20672;-77
2021/05/11 03:47:05;;;;;;;9.67;2.53;;;;;;;;;;5072203;28;20204;-76
2021/05/11 03:49:32;;;;;;;9.80;2.30;;;;;;;;;;5073561;28;20624;-76
2021/05/11 03:51:59;;;;;;;8.80;2.40;;;;;;;;;;5078735;28;20284;-77
2021/05/11 03:54:26;;;;;;;7.53;2.07;;;;;;;;;;5089802;28;20290;-76
2021/05/11 03:56:53;;;;;;;9.03;2.30;;;;;;;;;;5085212;28;20257;-77
2021/05/11 03:59:21;;;;;;;7.97;2.40;;;;;;;;;;5063400;28;20245;-76
2021/05/11 04:01:47;;;;;;;5.93;2.10;;;;;;;;;;5065721;28;20229;-76
2021/05/11 04:04:15;;;;;;;6.53;2.40;;;;;;;;;;5067371;28;20336;-76
2021/05/11 04:06:44;;;;;;;6.53;2.10;;;;;;;;;;5072798;28;20734;-76
2021/05/11 04:09:16;;;;;;;5.77;1.80;;;;;;;;;;5058633;28;20284;-77
2021/05/11 04:12:07;;;;;;;8.07;2.17;;;;;;;;;;5058080;28;20328;-76
2021/05/11 04:17:18;;;;;;;5.30;2.20;;;;;;;;;;5009375;28;20202;-76
2021/05/11 04:19:44;;;;;;;7.10;2.00;;;;;;;;;;5020478;28;20246;-77
2021/05/11 04:22:11;;;;;;;5.10;1.67;;;;;;;;;;5021429;28;20200;-77
2021/05/11 04:24:38;;;;;;;5.10;1.77;;;;;;;;;;5027460;28;20305;-76
2021/05/11 04:27:07;;;;;;;5.13;2.07;;;;;;;;;;5019369;28;20806;-76
2021/05/11 04:29:35;;;;;;;7.37;1.90;;;;;;;;;;5010385;28;20286;-76
2021/05/11 04:32:01;;;;;;;5.80;2.10;;;;;;;;;;5010561;28;20641;-76
2021/05/11 04:34:28;;;;;;;7.60;2.03;;;;;;;;;;5010254;28;20212;-76
2021/05/11 04:36:55;;;;;;;6.03;2.20;;;;;;;;;;5011245;28;20290;-75
2021/05/11 04:39:21;;;;;;;4.73;1.90;;;;;;;;;;5010469;28;20235;-76
2021/05/11 04:41:48;;;;;;;6.33;2.10;;;;;;;;;;5021492;28;20739;-77
2021/05/11 04:44:18;;;;;;;6.10;1.90;;;;;;;;;;5029953;28;20749;-76
2021/05/11 04:46:49;;;;;;;6.33;2.13;;;;;;;;;;5022789;28;20613;-77
2021/05/11 04:49:15;;;;;;;7.77;2.20;;;;;;;;;;5018713;28;20204;-76
2021/05/11 04:51:42;;;;;;;6.43;2.37;;;;;;;;;;5023460;28;20247;-76
2021/05/11 04:54:10;;;;;;;9.17;2.20;;;;;;;;;;5035089;28;20839;-76
2021/05/11 04:56:37;;;;;;;5.33;2.30;;;;;;;;;;5071782;28;20241;-76
2021/05/11 04:59:04;;;;;;;5.17;2.00;;;;;;;;;;5078648;28;20739;-76
2021/05/11 05:01:32;;;;;;;5.53;2.07;;;;;;;;;;5080947;28;20657;-76
2021/05/11 05:04:00;;;;;;;6.13;2.30;;;;;;;;;;5074041;28;20206;-76
2021/05/11 05:06:26;;;;;;;5.30;1.90;;;;;;;;;;5066934;28;20297;-76
2021/05/11 05:08:53;;;;;;;6.03;2.53;;;;;;;;;;5066353;28;20665;-76
2021/05/11 05:11:20;;;;;;;4.43;2.53;;;;;;;;;;5067019;28;20642;-76
2021/05/11 05:13:46;;;;;;;4.93;2.53;;;;;;;;;;5058497;28;20232;-78
2021/05/11 05:16:13;;;;;;;4.00;2.23;;;;;;;;;;5073259;28;20241;-76
2021/05/11 05:18:40;;;;;;;6.93;2.30;;;;;;;;;;5060531;28;20229;-77
2021/05/11 05:21:08;;;;;;;7.17;2.23;;;;;;;;;;5051933;28;20200;-77
2021/05/11 05:23:43;;;;;;;4.80;2.03;;;;;;;;;;5059232;28;20213;-77
2021/05/11 05:26:11;;;;;;;3.53;1.87;;;;;;;;;;5071098;28;20223;-77
2021/05/11 05:28:40;;;;;;;4.63;1.93;;;;;;;;;;5061822;28;20293;-77
2021/05/11 05:31:07;;;;;;;5.50;1.87;;;;;;;;;;5076967;28;20312;-77
2021/05/11 05:33:35;;;;;;;4.53;2.10;;;;;;;;;;5055745;28;20297;-77
2021/05/11 05:36:02;;;;;;;6.17;2.10;;;;;;;;;;5060178;28;20195;-76
2021/05/11 05:38:30;;;;;;;4.57;2.00;;;;;;;;;;5070811;28;20221;-76
2021/05/11 05:41:00;;;;;;;5.17;2.53;;;;;;;;;;5063972;28;20235;-75
2021/05/11 05:43:27;;;;;;;4.87;2.13;;;;;;;;;;5064691;28;20238;-76
2021/05/11 05:45:54;;;;;;;5.70;1.90;;;;;;;;;;5060687;28;20204;-75
2021/05/11 05:48:21;;;;;;;3.73;1.80;;;;;;;;;;5072509;28;20610;-75
2021/05/11 05:50:51;;;;;;;4.07;2.07;;;;;;;;;;5066696;28;20247;-76
2021/05/11 05:53:24;;;;;;;6.20;1.90;;;;;;;;;;5069313;28;20197;-76
2021/05/11 05:55:50;;;;;;;5.30;2.13;;;;;;;;;;5072303;28;20236;-77
2021/05/11 05:58:17;;;;;;;3.60;1.80;;;;;;;;;;5065649;28;20920;-77
2021/05/11 06:00:45;;;;;;;3.63;1.90;;;;;;;;;;5063891;28;20233;-77
2021/05/11 06:03:31;;;;;;;6.27;2.10;;;;;;;;;;5058715;28;20254;-76
2021/05/11 06:05:57;;;;;;;4.53;2.00;;;;;;;;;;5064641;28;20208;-77
2021/05/11 06:08:25;;;;;;;5.47;1.93;;;;;;;;;;5063121;28;20226;-76
2021/05/11 06:10:56;;;;;;;7.23;1.83;;;;;;;;;;5064339;28;20309;-76
2021/05/11 06:13:27;;;;;;;4.33;1.90;;;;;;;;;;5058642;28;20215;-76
2021/05/11 06:18:39;;;;;;;4.87;1.93;;;;;;;;;;5053325;28;20578;-76
2021/05/11 06:21:08;;;;;;;3.93;2.03;;;;;;;;;;5069850;28;20294;-76
2021/05/11 06:23:36;;;;;;;4.13;1.90;;;;;;;;;;5063593;28;20305;-76
2021/05/11 06:26:02;;;;;;;3.73;1.80;;;;;;;;;;5061033;28;20311;-76
2021/05/11 06:28:30;;;;;;;6.13;1.50;;;;;;;;;;5070899;28;20244;-76
2021/05/11 06:30:57;;;;;;;6.63;1.87;;;;;;;;;;5065306;28;20223;-76
2021/05/11 06:33:24;;;;;;;4.97;1.63;;;;;;;;;;5063287;28;20289;-76
2021/05/11 06:35:52;;;;;;;8.33;2.60;;;;;;;;;;5067693;28;20250;-76
2021/05/11 06:38:19;;;;;;;4.73;1.83;;;;;;;;;;5073386;28;20193;-76
2021/05/11 06:40:47;;;;;;;5.23;2.03;;;;;;;;;;5066633;28;20216;-76
2021/05/11 06:43:17;;;;;;;5.63;2.10;;;;;;;;;;5067357;28;20355;-76
2021/05/11 06:48:33;;;;;;;7.63;2.27;;;;;;;;;;5062848;28;20230;-79
2021/05/11 06:53:47;;;;;;;8.23;2.03;;;;;;;;;;5072725;28;20202;-78
2021/05/11 06:56:15;;;;;;;7.23;2.50;;;;;;;;;;5055785;28;21663;-79
2021/05/11 06:58:42;;;;;;;8.90;2.50;;;;;;;;;;5062208;28;20234;-78
2021/05/11 07:01:08;;;;;;;10.70;2.50;;;;;;;;;;5069109;28;20233;-78
2021/05/11 07:03:35;;;;;;;6.93;2.30;;;;;;;;;;5060592;28;20227;-78
2021/05/11 07:06:02;;;;;;;5.20;2.17;;;;;;;;;;5078123;28;20368;-79
2021/05/11 07:08:36;;;;;;;4.23;2.10;;;;;;;;;;5063911;28;20230;-78
2021/05/11 07:11:11;;;;;;;6.13;2.10;;;;;;;;;;5054659;28;20226;-78
2021/05/11 07:13:38;;;;;;;6.00;2.10;;;;;;;;;;5061241;28;20301;-79
2021/05/11 07:16:05;;;;;;;8.17;2.40;;;;;;;;;;5066163;28;20191;-78
2021/05/11 07:18:32;;;;;;;8.13;2.30;;;;;;;;;;5057282;28;20286;-78
2021/05/11 07:21:00;;;;;;;6.40;2.10;;;;;;;;;;5068002;28;20264;-78
2021/05/11 07:23:27;;;;;;;5.73;2.33;;;;;;;;;;5066102;28;20202;-79
2021/05/11 07:26:01;;;;;;;7.90;2.03;;;;;;;;;;5062093;28;20792;-77
2021/05/11 07:31:04;;;;;;;7.90;2.40;;;;;;;;;;5060508;28;20219;-79
2021/05/11 07:33:34;;;;;;;5.93;1.90;;;;;;;;;;5062680;28;20234;-78
2021/05/11 07:36:01;;;;;;;9.73;2.00;;;;;;;;;;5060993;28;20203;-78
2021/05/11 07:38:28;;;;;;;4.17;1.90;;;;;;;;;;5066357;28;20287;-79
2021/05/11 07:40:55;;;;;;;5.57;1.93;;;;;;;;;;5064501;28;20200;-79
2021/05/11 07:43:24;;;;;;;6.27;1.60;;;;;;;;;;5068210;28;20557;-79
2021/05/11 07:48:58;;;;;;;7.90;2.30;;;;;;;;;;5063037;28;20202;-79
2021/05/11 07:51:52;;;;;;;4.93;1.73;;;;;;;;;;5063173;28;20575;-79
2021/05/11 08:03:05;;;;;;;6.57;1.93;;;;;;;;;;5065447;28;20700;-79
2021/05/11 08:05:35;;;;;;;5.83;2.00;;;;;;;;;;5060757;28;20667;-79
2021/05/11 08:14:26;;;;;;;9.63;1.93;;;;;;;;;;5059728;28;20234;-77
2021/05/11 08:16:41;;;;;;;5.43;1.70;;;;;;;;;;5071093;28;20206;-79
2021/05/11 08:19:14;;;;;;;9.20;2.10;;;;;;;;;;5064828;28;20204;-79
2021/05/11 08:22:16;;;;;;;7.77;1.87;;;;;;;;;;5067782;28;20667;-79
2021/05/11 08:27:33;;;;;;;6.97;1.60;;;;;;;;;;5069955;28;20234;-79
2021/05/11 08:30:00;;;;;;;4.53;1.47;;;;;;;;;;5061433;28;20254;-78
2021/05/11 08:32:27;;;;;;;6.30;1.60;;;;;;;;;;5054493;28;20742;-79
2021/05/11 08:34:53;;;;;;;3.50;1.40;;;;;;;;;;5064800;28;20222;-78
2021/05/11 08:37:21;;;;;;;4.73;1.30;;;;;;;;;;5071830;28;20195;-78
2021/05/11 08:39:48;;;;;;;5.83;1.50;;;;;;;;;;5071120;28;20229;-79
2021/05/11 08:42:15;;;;;;;5.97;1.60;;;;;;;;;;5061971;28;20282;-79
2021/05/11 08:44:41;;;;;;;3.10;1.20;;;;;;;;;;5063568;28;20237;-79
2021/05/11 08:47:08;;;;;;;6.47;1.77;;;;;;;;;;5065990;28;20297;-80
2021/05/11 08:49:35;;;;;;;6.18;1.70;;;;;;;;;;5054349;28;20196;-80
2021/05/11 08:52:09;;;;;;;5.90;1.60;;;;;;;;;;5057291;28;20251;-79
2021/05/11 08:54:47;;;;;;;6.03;1.70;;;;;;;;;;5061655;28;20285;-79
2021/05/11 09:04:35;;;;;;;5.32;1.55;;;;;;;;;;5062506;28;21559;-80
2021/05/11 09:06:09;;;;;;;5.85;1.63;;;;;;;;;;5009105;28;20201;-79
2021/05/11 09:08:53;;;;;;;3.55;1.45;;;;;;;;;;5005265;28;20193;-79
2021/05/11 09:25:19;;;;;;;3.88;1.20;;;;;;;;;;4938830;28;20635;-78
2021/05/11 09:27:55;;;;;;;5.47;1.88;;;;;;;;;;4933669;29;20198;-79
2021/05/11 09:30:36;;;;;;;6.20;1.50;;;;;;;;;;4945522;28;20223;-79
2021/05/11 09:33:13;;;;;;;4.25;1.63;;;;;;;;;;4945652;29;20226;-79
2021/05/11 09:56:00;;;;;;;3.77;1.50;;;;;;;;;;5068913;28;20210;-78
2021/05/11 09:58:48;;;;;;;3.63;1.30;;;;;;;;;;5075578;28;20282;-78
2021/05/11 10:32:40;;;;;;;3.77;1.20;;;;;;;;;;5108605;28;20652;-77
2021/05/11 10:41:08;;;;;;;4.05;1.20;;;;;;;;;;5108715;28;20212;-78
2021/05/11 10:46:51;;;;;;;2.63;0.90;;;;;;;;;;5108301;28;20576;-77
2021/05/11 10:49:28;;;;;;;3.15;1.00;;;;;;;;;;5109190;28;20201;-77
2021/05/11 10:52:03;;;;;;;2.83;1.30;;;;;;;;;;5108488;28;20258;-78
2021/05/11 10:54:38;;;;;;;2.78;1.27;;;;;;;;;;5108246;28;20216;-78
2021/05/11 10:57:26;;;;;;;3.53;1.50;;;;;;;;;;5108365;28;20197;-79
2021/05/11 11:00:00;;;;;;;5.90;1.58;;;;;;;;;;5107932;28;20280;-76
2021/05/11 11:05:09;;;;;;;3.13;1.20;;;;;;;;;;5105511;28;20197;-76
2021/05/11 11:07:38;;;;;;;4.22;1.30;;;;;;;;;;5108544;28;20285;-76
2021/05/11 11:10:06;;;;;;;2.47;1.08;;;;;;;;;;5107876;28;20233;-78
2021/05/11 11:12:35;;;;;;;4.05;1.30;;;;;;;;;;5107815;28;20609;-77
2021/05/11 11:15:04;;;;;;;3.67;1.17;;;;;;;;;;5108483;28;20575;-76
2021/05/11 11:17:30;;;;;;;3.72;0.90;;;;;;;;;;5108528;28;20697;-77
2021/05/11 11:20:01;;;;;;;3.25;1.10;;;;;;;;;;5108425;28;20219;-77
2021/05/11 11:25:14;;;;;;;3.58;1.08;;;;;;;;;;5107228;28;20636;-76
2021/05/11 11:27:42;;;;;;;4.13;1.02;;;;;;;;;;5106683;28;20297;-76
2021/05/11 11:30:10;;;;;;;2.83;1.00;;;;;;;;;;5108026;28;20237;-76
2021/05/11 11:32:37;;;;;;;1.70;0.90;;;;;;;;;;5107731;28;20198;-79
2021/05/11 11:35:04;;;;;;;4.13;1.10;;;;;;;;;;5094560;28;20861;-79
2021/05/11 11:37:31;;;;;;;3.03;1.00;;;;;;;;;;5094794;28;20298;-79
2021/05/11 11:40:00;;;;;;;3.90;1.00;;;;;;;;;;5094186;28;20677;-78
2021/05/11 11:42:27;;;;;;;3.90;0.82;;;;;;;;;;5094232;28;20218;-79
2021/05/11 11:44:57;;;;;;;2.17;0.95;;;;;;;;;;5093119;28;20285;-79
2021/05/11 11:47:24;;;;;;;3.55;1.00;;;;;;;;;;5094292;28;20251;-80
2021/05/11 11:49:54;;;;;;;3.30;0.90;;;;;;;;;;5093747;28;20289;-79
2021/05/11 11:52:29;;;;;;;3.25;1.20;;;;;;;;;;5091845;28;20205;-79
2021/05/11 11:57:46;;;;;;;4.75;0.88;;;;;;;;;;5086686;28;20671;-81
2021/05/11 12:00:16;;;;;;;6.47;1.15;;;;;;;;;;5092401;28;20210;-80
2021/05/11 12:02:52;;;;;;;4.95;1.27;;;;;;;;;;5092992;28;20645;-78
2021/05/11 12:05:19;;;;;;;4.32;1.13;;;;;;;;;;5092805;28;20206;-78
2021/05/11 12:08:05;;;;;;;2.50;0.98;;;;;;;;;;5093583;28;20202;-78
2021/05/11 12:10:32;;;;;;;4.20;1.35;;;;;;;;;;5092947;28;20726;-78
2021/05/11 12:13:03;;;;;;;7.28;1.48;;;;;;;;;;5092975;28;20191;-79
2021/05/11 12:15:30;;;;;;;5.43;1.10;;;;;;;;;;5092290;28;20208;-79
2021/05/11 12:18:01;;;;;;;3.50;1.05;;;;;;;;;;5092640;28;20222;-78
2021/05/11 12:20:28;;;;;;;5.57;1.15;;;;;;;;;;5092220;28;20222;-78
2021/05/11 12:23:14;;;;;;;4.30;1.10;;;;;;;;;;5092545;28;20314;-78
2021/05/11 12:25:41;;;;;;;3.10;0.90;;;;;;;;;;5091458;28;20206;-79
2021/05/11 12:28:08;;;;;;;3.30;1.10;;;;;;;;;;5093025;28;20304;-79
2021/05/11 12:30:40;;;;;;;3.72;1.10;;;;;;;;;;5092101;28;20222;-79
2021/05/11 12:33:10;;;;;;;7.15;1.33;;;;;;;;;;5092734;28;20761;-78
2021/05/11 12:35:37;;;;;;;4.55;1.40;;;;;;;;;;5092081;28;20247;-78
2021/05/11 12:38:13;;;;;;;4.22;1.17;;;;;;;;;;5093571;28;20279;-78
2021/05/11 12:40:48;;;;;;;3.58;1.30;;;;;;;;;;5089730;28;20209;-77
2021/05/11 12:43:15;;;;;;;3.15;0.90;;;;;;;;;;5092421;28;20251;-78
2021/05/11 12:45:53;;;;;;;3.88;0.80;;;;;;;;;;5091074;28;20677;-77
2021/05/11 12:48:20;;;;;;;3.63;0.90;;;;;;;;;;5092335;28;20600;-77
2021/05/11 12:50:47;;;;;;;2.83;1.00;;;;;;;;;;5091196;28;20639;-78
2021/05/11 12:53:30;;;;;;;4.28;1.00;;;;;;;;;;5091589;28;20282;-78
2021/05/11 12:56:08;;;;;;;3.47;1.10;;;;;;;;;;5090601;28;20225;-78
2021/05/11 12:58:42;;;;;;;1.83;0.80;;;;;;;;;;5091964;28;20207;-77
2021/05/11 13:01:27;;;;;;;4.40;1.35;;;;;;;;;;5085414;28;20198;-79
2021/05/11 13:04:24;;;;;;;4.97;0.93;;;;;;;;;;5092093;28;20241;-78
2021/05/11 13:20:53;;;;;;;3.33;0.60;;;;;;;;;;5091952;28;20670;-79
2021/05/11 13:23:26;;;;;;;0.93;0.30;;;;;;;;;;5090849;28;20238;-79
2021/05/11 13:25:54;;;;;;;2.63;0.60;;;;;;;;;;5091329;28;20313;-78
2021/05/11 13:28:26;;;;;;;2.42;0.82;;;;;;;;;;5091667;28;20599;-79
2021/05/11 13:30:56;;;;;;;2.67;0.55;;;;;;;;;;5091166;28;20205;-79
2021/05/11 13:33:29;;;;;;;3.63;0.70;;;;;;;;;;5090106;28;20195;-79
2021/05/11 13:35:57;;;;;;;2.60;0.73;;;;;;;;;;5091672;28;20234;-79
2021/05/11 13:38:24;;;;;;;3.38;0.80;;;;;;;;;;5090644;28;20226;-79
2021/05/11 13:40:51;;;;;;;2.30;0.60;;;;;;;;;;5091351;28;20273;-78
2021/05/11 13:43:19;;;;;;;3.50;0.70;;;;;;;;;;5091509;28;20214;-79
2021/05/11 13:45:45;;;;;;;2.10;0.77;;;;;;;;;;5091255;28;20241;-78
2021/05/11 13:48:19;;;;;;;2.30;0.60;;;;;;;;;;5091011;28;20664;-78
2021/05/11 13:51:03;;;;;;;3.00;0.67;;;;;;;;;;5090888;28;20241;-79
2021/05/11 13:53:33;;;;;;;1.57;0.50;;;;;;;;;;5088446;28;20251;-78
2021/05/11 14:04:12;;;;;;;4.17;0.93;;;;;;;;;;5090348;28;20623;-76
2021/05/11 14:06:39;;;;;;;2.87;0.90;;;;;;;;;;5089851;28;20630;-75
2021/05/11 14:09:07;;;;;;;2.30;0.90;;;;;;;;;;5088693;28;20307;-75
2021/05/11 14:11:34;;;;;;;3.83;0.90;;;;;;;;;;5090165;28;20730;-75
2021/05/11 14:14:01;;;;;;;2.70;1.00;;;;;;;;;;5090653;28;20286;-75
2021/05/11 14:16:28;;;;;;;4.23;1.27;;;;;;;;;;5084170;28;20305;-76
2021/05/11 14:18:55;;;;;;;5.70;1.07;;;;;;;;;;5088406;28;20670;-76
2021/05/11 14:21:22;;;;;;;4.20;1.10;;;;;;;;;;5080417;28;20233;-76
2021/05/11 14:23:51;;;;;;;4.67;1.37;;;;;;;;;;5089968;28;20305;-78
2021/05/11 14:26:19;;;;;;;4.77;1.30;;;;;;;;;;5090193;28;20241;-78
2021/05/11 14:28:45;;;;;;;4.57;1.00;;;;;;;;;;5090322;28;20275;-78
2021/05/11 14:31:12;;;;;;;4.60;1.37;;;;;;;;;;5090611;28;20750;-78
2021/05/11 14:33:39;;;;;;;5.03;1.00;;;;;;;;;;5091234;28;20204;-78
2021/05/11 14:36:07;;;;;;;5.17;1.00;;;;;;;;;;5091095;28;20305;-79
2021/05/11 14:38:33;;;;;;;5.43;1.23;;;;;;;;;;5091431;28;20204;-78
2021/05/11 14:41:03;;;;;;;4.90;1.10;;;;;;;;;;5090249;28;20201;-77
2021/05/11 14:43:31;;;;;;;6.67;1.17;;;;;;;;;;5091483;28;20265;-77
2021/05/11 14:45:59;;;;;;;4.10;1.20;;;;;;;;;;5090506;28;20237;-77
2021/05/11 14:48:25;;;;;;;5.70;1.40;;;;;;;;;;5085709;28;20202;-77
2021/05/11 14:50:52;;;;;;;4.83;1.30;;;;;;;;;;5089501;28;20297;-77
2021/05/11 14:53:19;;;;;;;11.00;1.60;;;;;;;;;;5090789;28;20302;-77
2021/05/11 14:55:46;;;;;;;5.53;1.30;;;;;;;;;;5089904;28;20297;-76
2021/05/11 14:58:13;;;;;;;5.73;1.23;;;;;;;;;;5090095;28;20335;-77
2021/05/11 15:00:40;;;;;;;4.37;1.10;;;;;;;;;;5090047;28;20286;-75
2021/05/11 15:03:10;;;;;;;4.13;0.90;;;;;;;;;;5089809;28;20234;-76
2021/05/11 15:05:37;;;;;;;6.50;1.17;;;;;;;;;;5089268;28;20202;-76
2021/05/11 15:08:04;;;;;;;3.47;0.90;;;;;;;;;;5090783;28;20194;-77
2021/05/11 15:10:31;;;;;;;5.87;1.00;;;;;;;;;;5093674;28;20281;-76
2021/05/11 15:12:57;;;;;;;7.50;1.23;;;;;;;;;;5093569;28;20222;-76
2021/05/11 15:15:24;;;;;;;8.00;1.80;;;;;;;;;;5093252;28;20206;-77
2021/05/11 15:18:00;;;;;;;7.03;1.50;;;;;;;;;;5093855;28;20281;-77
2021/05/11 15:20:27;;;;;;;7.13;1.30;;;;;;;;;;5093306;28;20198;-78
2021/05/11 15:22:53;;;;;;;5.47;1.37;;;;;;;;;;5093545;28;20320;-77
2021/05/11 15:25:21;;;;;;;9.73;1.93;;;;;;;;;;5092783;28;20207;-78
2021/05/11 15:27:48;;;;;;;8.10;1.77;;;;;;;;;;5090801;28;20207;-78
2021/05/11 15:30:15;;;;;;;8.40;1.80;;;;;;;;;;5089261;28;20226;-78
2021/05/11 15:32:43;;;;;;;10.43;2.03;;;;;;;;;;5088536;28;20226;-79
2021/05/11 15:35:12;;;;;;;6.87;1.60;;;;;;;;;;5093263;28;20769;-78
2021/05/11 15:37:39;;;;;;;6.50;1.60;;;;;;;;;;5092771;28;20281;-78
2021/05/11 15:40:07;;;;;;;8.47;2.10;;;;;;;;;;5094088;28;20230;-78
2021/05/11 15:42:36;;;;;;;8.97;1.80;;;;;;;;;;5092573;28;20317;-79
2021/05/11 15:45:03;;;;;;;7.67;1.60;;;;;;;;;;5093579;28;20287;-78
2021/05/11 15:47:30;;;;;;;8.37;1.67;;;;;;;;;;5094311;28;20294;-78
2021/05/11 15:49:57;;;;;;;10.80;2.70;;;;;;;;;;5093120;28;20288;-78
2021/05/11 15:52:25;;;;;;;11.43;2.00;;;;;;;;;;5094004;28;20229;-78
2021/05/11 15:54:52;;;;;;;9.13;2.20;;;;;;;;;;5092617;28;20229;-78
2021/05/11 15:57:19;;;;;;;9.03;1.97;;;;;;;;;;5092633;28;20325;-78
2021/05/11 15:59:45;;;;;;;9.47;2.20;;;;;;;;;;5087894;28;20206;-76
2021/05/11 16:02:12;;;;;;;9.40;2.20;;;;;;;;;;5087423;28;20230;-77
2021/05/11 16:04:39;;;;;;;8.80;2.30;;;;;;;;;;5089796;28;20211;-77
2021/05/11 16:07:06;;;;;;;9.63;1.90;;;;;;;;;;5084797;28;20198;-77
2021/05/11 16:09:33;;;;;;;11.83;2.47;;;;;;;;;;5093645;28;20989;-77
2021/05/11 16:12:00;;;;;;;9.60;2.47;;;;;;;;;;5092250;28;20297;-77
2021/05/11 16:14:26;;;;;;;9.00;2.07;;;;;;;;;;5093111;28;20234;-77
2021/05/11 16:16:53;;;;;;;9.60;1.90;;;;;;;;;;5092892;28;20735;-77
2021/05/11 16:19:20;;;;;;;10.33;1.90;;;;;;;;;;5086296;28;20352;-77
2021/05/11 16:21:46;;;;;;;11.07;1.90;;;;;;;;;;5087730;28;20576;-77
2021/05/11 16:24:13;;;;;;;11.77;2.30;;;;;;;;;;5091327;28;20206;-77
2021/05/11 16:26:41;;;;;;;7.77;1.73;;;;;;;;;;5091849;28;20314;-78
2021/05/11 16:29:08;;;;;;;9.93;2.37;;;;;;;;;;5091125;28;20227;-77
2021/05/11 16:31:34;;;;;;;11.77;2.63;;;;;;;;;;5088076;28;20697;-77
2021/05/11 16:34:03;;;;;;;11.57;2.17;;;;;;;;;;5092056;28;20190;-77
2021/05/11 16:36:30;;;;;;;11.93;2.20;;;;;;;;;;5091915;28;20199;-77
2021/05/11 16:38:56;;;;;;;13.73;2.37;;;;;;;;;;5091060;28;20206;-77
2021/05/11 16:41:23;;;;;;;9.97;2.43;;;;;;;;;;5090546;28;20344;-78
2021/05/11 16:43:56;;;;;;;10.13;2.07;;;;;;;;;;5091263;28;20301;-78
2021/05/11 16:46:23;;;;;;;9.80;2.27;;;16.00;99.90;;;;;;5085394;28;21488;-79
2021/05/11 16:48:49;;;;;;;7.70;2.07;;;15.80;99.90;;;;;;5092358;28;20282;-78
2021/05/11 16:51:15;;;;;;;12.20;2.43;;;15.50;99.90;;;;;;5086950;28;20281;-77
2021/05/11 16:53:42;;;;;;;10.07;2.73;;;15.20;99.90;;;;;;5096929;28;20225;-78
2021/05/11 16:56:09;;;;;;;11.17;2.37;;;15.30;99.90;;;;;;5093281;28;20281;-78
2021/05/11 16:58:36;;;;;;;10.13;2.60;;;15.60;99.90;;;;;;5092024;28;20203;-78
2021/05/11 17:01:03;;;;;;;12.27;2.77;;;15.70;99.90;;;;;;5092336;28;20281;-78
2021/05/11 17:03:29;;;;;;;8.20;2.13;;;15.20;99.90;;;;;;5091359;28;20237;-78
2021/05/11 17:05:56;;;;;;;9.70;2.20;;;15.10;99.90;;;;;;5088757;28;20289;-79
2021/05/11 17:08:23;;;;;;;8.37;2.30;;;14.90;99.90;;;;;;5090855;28;20225;-79
2021/05/11 17:10:49;;;;;;;11.70;2.53;;;14.90;99.90;;;;;;5091040;28;20226;-79
2021/05/11 17:13:16;;;;;;;8.33;2.27;;;14.90;99.90;;;;;;5091813;28;20194;-79
2021/05/11 17:15:42;;;;;;;11.40;2.80;;;14.70;99.90;;;;;;5089532;28;20631;-79
2021/05/11 17:18:10;;;;;;;7.90;2.43;;;14.70;99.90;;;;;;5091982;28;20248;-79
2021/05/11 17:20:44;;;;;;;6.47;2.20;;;14.60;99.90;;;;;;5090648;28;20281;-79
2021/05/11 17:23:11;;;;;;;7.50;2.07;;;14.80;99.90;;;;;;5095768;28;20226;-78
2021/05/11 17:25:37;;;;;;;8.83;2.37;;;14.70;99.90;;;;;;5090978;28;20325;-78
2021/05/11 17:28:05;;;;;;;14.73;3.20;;;14.70;99.90;;;;;;5091200;28;20281;-77
2021/05/11 17:30:33;;;;;;;11.80;2.60;;;14.70;99.90;;;;;;5089935;28;20210;-79
2021/05/11 17:32:59;;;;;;;13.33;2.87;;;14.70;99.90;;;;;;5087115;28;20669;-77
2021/05/11 17:35:27;;;;;;;10.87;2.40;;;14.70;99.90;;;;;;5091334;28;20281;-77
2021/05/11 17:37:54;;;;;;;9.50;2.13;;;14.50;99.90;;;;;;5090967;28;20234;-77
2021/05/11 17:40:23;;;;;;;8.17;2.07;;;14.60;99.90;;;;;;5089965;28;20199;-76
2021/05/11 17:42:50;;;;;;;10.03;2.43;;;14.60;99.90;;;;;;5091310;28;20214;-76
2021/05/11 17:45:18;;;;;;;12.47;2.53;;;14.70;99.90;;;;;;5091750;28;20238;-76
2021/05/11 17:47:51;;;;;;;10.87;2.23;;;14.60;99.90;;;;;;5090823;28;20726;-78